Data Viewer
| City | State | Eastern Time | Source | Daily Temp Max | Daily Temp Min | Daily Dew Point Max | Daily Dew Point Min | Daily RH Max | Daily Min RH | Daily BP Max | Daily BP Min | Daily Precip | Daily Wind Max | Daily Wind Max Dir |
|---|---|---|---|---|---|---|---|---|---|---|---|---|---|---|
| Piney Hollow | NJ | 2026-04-09 | Mesonet | 60 | 24 | 40 | 22 | 99 | 38 | 0.00 | 10 | E | ||
| Piney Hollow | NJ | 2026-04-25 | Mesonet | 53 | 43 | 46 | 40 | 100 | 67 | 0.32 | 15 | ENE | ||
| Piney Hollow | NJ | 2026-05-08 | Mesonet | 71 | 42 | 47 | 33 | 93 | 29 | 0.00 | 19 | WNW | ||
| Piney Hollow | NJ | 2026-05-07 | Mesonet | 67 | 49 | 61 | 35 | 99 | 31 | 0.15 | 15 | WNW | ||
| Piney Hollow | NJ | 2026-05-06 | Mesonet | 73 | 61 | 61 | 55 | 87 | 60 | 0.00 | 19 | WNW | ||
| Piney Hollow | NJ | 2026-05-05 | Mesonet | 85 | 55 | 60 | 50 | 93 | 31 | 0.00 | 15 | SW | ||
| Piney Hollow | NJ | 2026-05-04 | Mesonet | 76 | 41 | 53 | 36 | 94 | 28 | 0.00 | 16 | WSW | ||
| Piney Hollow | NJ | 2026-05-03 | Mesonet | 61 | 41 | 39 | 26 | 82 | 29 | 0.00 | 25 | WSW | ||
| Piney Hollow | NJ | 2026-05-02 | Mesonet | 64 | 46 | 48 | 32 | 94 | 35 | 0.00 | 13 | WNW | ||
| Piney Hollow | NJ | 2026-05-01 | Mesonet | 68 | 39 | 46 | 34 | 99 | 32 | 0.00 | 12 | SW | ||
| Piney Hollow | NJ | 2026-04-30 | Mesonet | 67 | 47 | 54 | 44 | 100 | 51 | 0.12 | 14 | NW | ||
| Piney Hollow | NJ | 2026-04-29 | Mesonet | 66 | 48 | 49 | 40 | 100 | 43 | 0.40 | 11 | E | ||
| Piney Hollow | NJ | 2026-04-28 | Mesonet | 66 | 33 | 46 | 33 | 100 | 40 | 0.00 | 8 | WNW | ||
| Piney Hollow | NJ | 2026-04-27 | Mesonet | 73 | 33 | 49 | 33 | 100 | 35 | 0.00 | 11 | SE | ||
| Piney Hollow | NJ | 2026-04-26 | Mesonet | 56 | 37 | 46 | 37 | 100 | 68 | 0.11 | 11 | N | ||
| Piney Hollow | NJ | 2026-04-24 | Mesonet | 78 | 44 | 50 | 35 | 100 | 27 | 0.00 | 12 | NW | ||
| Piney Hollow | NJ | 2026-04-10 | Mesonet | 72 | 39 | 49 | 37 | 97 | 35 | 0.00 | 10 | NNW | ||
| Piney Hollow | NJ | 2026-04-23 | Mesonet | 79 | 41 | 52 | 41 | 100 | 31 | 0.00 | 17 | WSW | ||
| Piney Hollow | NJ | 2026-04-22 | Mesonet | 70 | 45 | 53 | 36 | 97 | 49 | 0.01 | 11 | WSW | ||
| Piney Hollow | NJ | 2026-04-21 | Mesonet | 58 | 25 | 36 | 17 | 93 | 22 | 0.00 | 11 | N | ||
| Piney Hollow | NJ | 2026-04-20 | Mesonet | 55 | 29 | 41 | 21 | 100 | 32 | 0.00 | 19 | NW | ||
| Piney Hollow | NJ | 2026-04-19 | Mesonet | 55 | 34 | 53 | 33 | 100 | 50 | 0.02 | 22 | W | ||
| Piney Hollow | NJ | 2026-04-18 | Mesonet | 72 | 50 | 59 | 49 | 100 | 57 | 0.00 | 10 | ESE | ||
| Piney Hollow | NJ | 2026-04-17 | Mesonet | 82 | 62 | 62 | 54 | 87 | 40 | 0.00 | 14 | WNW | ||
| Piney Hollow | NJ | 2026-04-16 | Mesonet | 94 | 60 | 65 | 57 | 95 | 32 | 0.00 | 11 | W | ||
| Piney Hollow | NJ | 2026-04-15 | Mesonet | 91 | 60 | 65 | 58 | 97 | 35 | 0.00 | 19 | WSW | ||
| Piney Hollow | NJ | 2026-04-14 | Mesonet | 88 | 56 | 62 | 52 | 89 | 36 | 0.00 | 16 | W | ||
| Piney Hollow | NJ | 2026-04-13 | Mesonet | 80 | 46 | 61 | 42 | 93 | 43 | 0.00 | 16 | W | ||
| Piney Hollow | NJ | 2026-04-12 | Mesonet | 66 | 32 | 42 | 31 | 97 | 35 | 0.00 | 12 | E | ||
| Piney Hollow | NJ | 2026-04-11 | Mesonet | 67 | 41 | 49 | 30 | 96 | 28 | 0.00 | 18 | NW | ||
| Piney Hollow | NJ | 2026-05-09 | Mesonet | 55 | 51 | 45 | 44 | 79 | 66 | 0.00 | 0 | SW |
data collection created in 0.015915870666504 (queried in 0.009644) rendered in: 5.793571472168E-5

